Time;durP1;ratioP1;P1;durP2;ratioP2;P2;SDS_P1;SDS_P2;PMS_P1;PMS_P2;Temp;Humidity;BMP_temperature;BMP_pressure;BME280_temperature;BME280_humidity;BME280_pressure;Samples;Min_cycle;Max_cycle;Signal;HPM_P1;HPM_P2
2023/10/02 00:01:06;;;;;;;16.55;4.97;;;16.80;99.90;;;;;;5073428;28;20028;-53
2023/10/02 00:03:39;;;;;;;14.30;4.78;;;16.80;99.90;;;;;;5073583;28;20043;-51
2023/10/02 00:06:09;;;;;;;13.98;4.80;;;16.80;99.90;;;;;;5073588;28;20557;-51
2023/10/02 00:08:51;;;;;;;14.32;5.07;;;16.80;99.90;;;;;;5073548;28;20131;-50
2023/10/02 00:11:36;;;;;;;13.73;4.60;;;16.80;99.90;;;;;;5073259;28;20033;-52
2023/10/02 00:14:20;;;;;;;13.77;4.75;;;16.80;99.90;;;;;;5073339;28;20037;-52
2023/10/02 00:17:03;;;;;;;15.32;4.85;;;16.70;99.90;;;;;;5073606;28;20157;-51
2023/10/02 00:19:36;;;;;;;13.98;4.72;;;16.70;99.90;;;;;;5073581;28;20378;-51
2023/10/02 00:22:36;;;;;;;13.90;5.03;;;16.70;99.90;;;;;;5073232;28;20043;-52
2023/10/02 00:25:09;;;;;;;13.02;4.85;;;16.60;99.90;;;;;;5055179;28;20111;-50
2023/10/02 00:27:36;;;;;;;13.90;4.75;;;16.60;99.90;;;;;;5055455;28;20523;-55
2023/10/02 00:30:07;;;;;;;12.70;4.97;;;16.50;99.90;;;;;;5054834;28;20021;-51
2023/10/02 00:32:34;;;;;;;10.48;4.50;;;16.60;99.90;;;;;;5072959;28;20020;-52
2023/10/02 00:35:02;;;;;;;15.10;5.47;;;16.60;99.90;;;;;;5038378;28;20028;-54
2023/10/02 00:37:44;;;;;;;14.98;5.22;;;16.50;99.90;;;;;;5054883;28;20020;-54
2023/10/02 00:40:20;;;;;;;15.60;4.45;;;16.60;99.90;;;;;;5054674;28;20506;-53
2023/10/02 00:42:54;;;;;;;12.70;4.47;;;16.50;99.90;;;;;;5073017;28;20111;-54
2023/10/02 00:45:21;;;;;;;14.73;4.78;;;16.50;99.90;;;;;;5072964;28;20070;-53
2023/10/02 00:47:49;;;;;;;12.98;4.68;;;16.50;99.90;;;;;;5054715;28;20493;-54
2023/10/02 00:50:23;;;;;;;12.00;4.72;;;16.50;99.90;;;;;;5038069;28;20431;-54
2023/10/02 00:53:03;;;;;;;15.65;5.57;;;16.50;99.90;;;;;;5054537;28;20028;-54
2023/10/02 00:55:33;;;;;;;12.23;4.95;;;16.50;99.90;;;;;;5054582;28;20055;-51
2023/10/02 00:58:04;;;;;;;14.00;4.53;;;16.40;99.90;;;;;;5072763;28;20078;-51
2023/10/02 01:00:35;;;;;;;13.63;5.07;;;16.30;99.90;;;;;;5072478;28;20033;-53
2023/10/02 01:03:08;;;;;;;13.00;4.70;;;16.20;99.90;;;;;;5055875;28;20365;-51
2023/10/02 01:05:50;;;;;;;13.35;5.10;;;16.20;99.90;;;;;;5072751;28;20081;-52
2023/10/02 01:08:24;;;;;;;14.32;4.80;;;16.30;99.90;;;;;;5054589;28;20484;-53
2023/10/02 01:10:56;;;;;;;12.60;4.38;;;16.30;99.90;;;;;;5054259;28;20028;-51
2023/10/02 01:13:27;;;;;;;14.65;4.90;;;16.30;99.90;;;;;;5054366;28;20392;-51
2023/10/02 01:15:57;;;;;;;12.88;4.57;;;16.30;99.90;;;;;;5054176;28;20033;-54
2023/10/02 01:18:27;;;;;;;12.95;5.03;;;16.30;99.90;;;;;;5054147;28;20112;-51
2023/10/02 01:20:59;;;;;;;14.88;4.85;;;16.40;99.90;;;;;;5053868;28;20032;-51
2023/10/02 01:23:26;;;;;;;13.73;4.55;;;16.30;99.90;;;;;;5071973;28;20385;-52
2023/10/02 01:26:02;;;;;;;13.55;5.15;;;16.30;99.90;;;;;;5072051;28;20021;-52
2023/10/02 01:28:51;;;;;;;14.85;4.90;;;16.20;99.90;;;;;;5071931;28;20096;-51
2023/10/02 01:31:35;;;;;;;11.18;4.35;;;16.20;99.90;;;;;;5053985;28;20044;-51
2023/10/02 01:34:02;;;;;;;11.93;4.45;;;16.30;99.90;;;;;;5071786;28;20040;-51
2023/10/02 01:36:30;;;;;;;15.65;5.07;;;16.30;99.90;;;;;;5053798;28;20631;-50
2023/10/02 01:39:10;;;;;;;15.47;5.30;;;16.20;99.90;;;;;;5053523;28;20035;-51
2023/10/02 01:41:36;;;;;;;13.82;4.35;;;16.20;99.90;;;;;;5071397;28;20553;-53
2023/10/02 01:44:06;;;;;;;14.57;5.07;;;16.20;99.90;;;;;;5053661;28;20378;-54
2023/10/02 01:46:36;;;;;;;13.40;4.65;;;16.20;99.90;;;;;;5053459;28;20063;-53
2023/10/02 01:49:02;;;;;;;14.85;5.53;;;16.30;99.90;;;;;;5053099;28;20029;-52
2023/10/02 01:51:31;;;;;;;15.68;4.90;;;16.30;99.90;;;;;;5071429;28;20041;-54
2023/10/02 01:54:15;;;;;;;13.93;4.70;;;16.30;99.90;;;;;;5071433;28;20032;-52
2023/10/02 01:56:45;;;;;;;14.57;4.57;;;16.20;99.90;;;;;;5053383;28;20040;-55
2023/10/02 01:59:14;;;;;;;13.70;5.00;;;16.30;99.90;;;;;;5053180;28;20035;-50
2023/10/02 02:01:46;;;;;;;11.45;4.43;;;16.20;99.90;;;;;;5071180;28;20030;-51
2023/10/02 02:04:15;;;;;;;11.30;4.55;;;16.30;99.90;;;;;;5071369;28;20025;-51
2023/10/02 02:06:53;;;;;;;14.50;4.53;;;16.30;99.90;;;;;;5071438;28;20166;-51
2023/10/02 02:09:25;;;;;;;11.63;4.70;;;16.20;99.90;;;;;;5071182;28;20039;-50
2023/10/02 02:12:07;;;;;;;16.15;4.90;;;16.20;99.90;;;;;;5071055;28;20037;-53
2023/10/02 02:14:41;;;;;;;14.13;4.85;;;16.20;99.90;;;;;;5053190;28;20032;-53
2023/10/02 02:17:11;;;;;;;16.52;4.25;;;16.20;99.90;;;;;;5053117;28;20055;-52
2023/10/02 02:19:37;;;;;;;;;;;16.20;99.90;;;;;;5052928;28;20063;-52
2023/10/02 02:22:03;;;;;;;13.85;5.00;;;16.20;99.90;;;;;;5052583;28;19966;-54
2023/10/02 02:24:34;;;;;;;12.38;4.88;;;16.20;99.90;;;;;;5052877;28;20036;-52
2023/10/02 02:27:04;;;;;;;11.48;4.75;;;16.20;99.90;;;;;;5052925;28;20036;-54
2023/10/02 02:29:30;;;;;;;11.27;4.10;;;16.20;99.90;;;;;;5052671;28;20377;-51
2023/10/02 02:31:56;;;;;;;11.60;4.95;;;16.10;99.90;;;;;;5070930;28;20031;-52
2023/10/02 02:34:23;;;;;;;13.60;5.10;;;16.10;99.90;;;;;;5052969;28;20029;-55
2023/10/02 02:36:50;;;;;;;14.23;5.15;;;16.10;99.90;;;;;;5052889;28;20040;-55
2023/10/02 02:39:18;;;;;;;15.10;4.65;;;16.10;99.90;;;;;;5052583;28;20036;-54
2023/10/02 02:42:08;;;;;;;13.13;4.07;;;16.10;99.90;;;;;;5053289;28;20028;-51
2023/10/02 02:44:43;;;;;;;13.48;4.93;;;16.10;99.90;;;;;;5052805;28;20510;-51
2023/10/02 02:47:10;;;;;;;16.80;4.90;;;16.10;99.90;;;;;;5052790;28;20033;-51
2023/10/02 02:49:51;;;;;;;12.98;4.45;;;16.10;99.90;;;;;;5070742;28;20017;-53
2023/10/02 02:52:19;;;;;;;11.60;4.85;;;16.10;99.90;;;;;;5052501;28;20469;-54
2023/10/02 02:54:58;;;;;;;14.98;4.53;;;16.10;99.90;;;;;;5071049;28;20431;-53
2023/10/02 02:57:31;;;;;;;11.57;4.38;;;16.00;99.90;;;;;;5070829;28;20063;-52
2023/10/02 03:02:48;;;;;;;13.20;4.07;;;16.10;99.90;;;;;;5070975;28;20028;-52
2023/10/02 03:05:16;;;;;;;14.38;4.72;;;16.10;99.90;;;;;;5070696;28;20050;-52
2023/10/02 03:07:42;;;;;;;12.48;4.57;;;16.10;99.90;;;;;;5070593;28;20510;-52
2023/10/02 03:10:11;;;;;;;13.32;4.38;;;16.10;99.90;;;;;;5070423;28;20104;-50
2023/10/02 03:12:47;;;;;;;15.35;4.95;;;16.10;99.90;;;;;;5070529;28;20075;-54
2023/10/02 03:15:17;;;;;;;14.52;4.65;;;16.10;99.90;;;;;;5070599;28;20530;-53
2023/10/02 03:17:49;;;;;;;14.57;5.10;;;16.10;99.90;;;;;;5086979;28;20408;-53
2023/10/02 03:20:24;;;;;;;14.65;4.90;;;16.10;99.90;;;;;;5090534;28;20066;-54
2023/10/02 03:22:55;;;;;;;12.38;4.45;;;16.10;99.90;;;;;;5090501;28;20069;-50
2023/10/02 03:25:28;;;;;;;15.13;4.72;;;16.10;99.90;;;;;;5090716;28;20039;-52
2023/10/02 03:27:57;;;;;;;15.55;5.00;;;16.10;99.90;;;;;;5090805;28;20077;-51
2023/10/02 03:30:35;;;;;;;14.57;4.93;;;16.10;99.90;;;;;;5090837;28;20028;-53
2023/10/02 03:33:16;;;;;;;13.13;4.07;;;16.00;99.90;;;;;;5092764;28;20472;-55
2023/10/02 03:35:42;;;;;;;10.18;4.18;;;16.10;99.90;;;;;;5094901;28;20046;-53
2023/10/02 03:38:07;;;;;;;13.73;5.10;;;16.10;99.90;;;;;;5094102;28;20051;-55
2023/10/02 03:40:34;;;;;;;12.30;5.10;;;16.00;99.90;;;;;;5093994;28;20484;-54
2023/10/02 03:43:18;;;;;;;15.63;5.10;;;16.10;99.90;;;;;;5093953;28;20038;-54
2023/10/02 03:45:45;;;;;;;15.18;4.65;;;16.10;99.90;;;;;;5094281;28;20031;-51
2023/10/02 03:48:15;;;;;;;15.05;4.47;;;16.10;99.90;;;;;;5094191;28;20024;-52
2023/10/02 03:50:41;;;;;;;15.95;5.07;;;16.10;99.90;;;;;;5093767;28;20036;-51
2023/10/02 03:53:28;;;;;;;13.68;4.72;;;16.10;99.90;;;;;;5094037;28;20032;-53
2023/10/02 03:56:36;;;;;;;14.18;4.82;;;16.10;99.90;;;;;;5089655;28;20036;-53
2023/10/02 03:58:51;;;;;;;12.90;4.65;;;16.10;99.90;;;;;;5055403;28;20040;-51
2023/10/02 04:01:28;;;;;;;15.73;4.93;;;16.10;99.90;;;;;;5055395;28;20132;-52
2023/10/02 04:06:42;;;;;;;17.58;5.20;;;16.10;99.90;;;;;;5073746;28;20453;-52
2023/10/02 04:09:18;;;;;;;18.35;4.93;;;16.10;99.90;;;;;;5073468;28;20084;-54
2023/10/02 04:11:45;;;;;;;13.13;4.47;;;16.10;99.90;;;;;;5073704;28;20121;-53
2023/10/02 04:14:17;;;;;;;15.27;4.65;;;15.90;99.90;;;;;;5073642;28;20051;-52
2023/10/02 04:16:51;;;;;;;13.73;4.53;;;16.00;99.90;;;;;;5073546;28;20093;-53
2023/10/02 04:19:24;;;;;;;12.50;4.35;;;16.00;99.90;;;;;;5073046;28;20039;-53
2023/10/02 04:21:56;;;;;;;11.77;4.43;;;16.00;99.90;;;;;;5072973;28;20476;-53
2023/10/02 04:24:26;;;;;;;13.57;4.72;;;16.00;99.90;;;;;;5054997;28;20028;-53
2023/10/02 04:27:14;;;;;;;16.38;4.97;;;16.10;99.90;;;;;;5073195;28;20071;-50
2023/10/02 04:29:48;;;;;;;12.80;4.53;;;16.10;99.90;;;;;;5072956;28;20040;-50
2023/10/02 04:32:19;;;;;;;16.85;5.05;;;16.10;99.90;;;;;;5072864;28;20086;-51
2023/10/02 04:34:56;;;;;;;12.45;4.97;;;16.10;99.90;;;;;;5073024;28;20108;-52
2023/10/02 04:37:22;;;;;;;14.27;5.18;;;16.10;99.90;;;;;;5073129;28;20036;-50
2023/10/02 04:42:25;;;;;;;16.17;4.80;;;16.10;99.90;;;;;;5072642;28;20032;-52
2023/10/02 04:44:56;;;;;;;;;;;16.10;99.90;;;;;;5073105;28;20025;-53
2023/10/02 04:47:26;;;;;;;15.55;4.75;;;16.10;99.90;;;;;;5072723;28;19933;-53
2023/10/02 04:55:24;;;;;;;14.35;4.53;;;16.00;99.90;;;;;;5072490;28;20028;-51
2023/10/02 04:57:54;;;;;;;13.43;4.78;;;16.00;99.90;;;;;;5072541;28;20032;-54
2023/10/02 05:00:34;;;;;;;11.95;4.60;;;16.00;99.90;;;;;;5072916;28;20158;-53
2023/10/02 05:03:17;;;;;;;14.32;4.82;;;16.00;99.90;;;;;;5072454;28;20177;-51
2023/10/02 05:05:53;;;;;;;14.50;4.65;;;16.10;99.90;;;;;;5073212;28;20111;-49
2023/10/02 05:08:21;;;;;;;13.85;4.88;;;16.10;99.90;;;;;;5072829;28;20396;-50
2023/10/02 05:10:56;;;;;;;13.48;4.45;;;16.10;99.90;;;;;;5072074;28;20090;-49
2023/10/02 05:16:09;;;;;;;12.13;4.72;;;16.10;99.90;;;;;;5092978;28;20027;-49
2023/10/02 05:18:35;;;;;;;13.37;5.13;;;16.10;99.90;;;;;;5092635;28;20509;-51
2023/10/02 05:21:01;;;;;;;13.10;5.00;;;16.10;99.90;;;;;;5091608;28;20028;-52
2023/10/02 05:23:28;;;;;;;14.02;4.50;;;16.20;99.90;;;;;;5091482;28;20040;-51
2023/10/02 05:25:54;;;;;;;13.48;4.35;;;16.20;99.90;;;;;;5092465;28;20566;-50
2023/10/02 05:28:20;;;;;;;14.13;4.55;;;16.20;99.90;;;;;;5092509;28;20028;-51
2023/10/02 05:30:46;;;;;;;14.73;4.70;;;16.00;99.90;;;;;;5091960;28;20024;-51
2023/10/02 05:33:16;;;;;;;14.20;5.07;;;16.00;99.90;;;;;;5092194;28;20514;-51
2023/10/02 05:35:45;;;;;;;14.35;4.72;;;16.10;99.90;;;;;;5092262;28;20472;-50
2023/10/02 05:38:16;;;;;;;13.75;5.35;;;16.10;99.90;;;;;;5092028;28;20119;-53
2023/10/02 05:40:47;;;;;;;13.93;4.93;;;16.00;99.90;;;;;;5091306;28;20032;-54
2023/10/02 05:43:22;;;;;;;15.18;5.13;;;15.90;99.90;;;;;;5091626;28;20028;-54
2023/10/02 05:45:47;;;;;;;14.48;5.03;;;16.00;99.90;;;;;;5073597;28;20052;-51
2023/10/02 05:48:19;;;;;;;16.83;5.32;;;15.90;99.90;;;;;;5084009;28;20062;-50
2023/10/02 05:50:48;;;;;;;14.55;5.25;;;15.90;99.90;;;;;;5087908;28;20114;-50
2023/10/02 05:53:15;;;;;;;14.02;4.32;;;15.80;99.90;;;;;;5075072;28;20033;-50
2023/10/02 05:55:57;;;;;;;14.35;4.95;;;15.70;99.90;;;;;;5072230;28;20127;-53
2023/10/02 05:58:32;;;;;;;14.02;5.03;;;15.80;99.90;;;;;;5063840;28;20050;-50
2023/10/02 06:01:03;;;;;;;13.52;4.70;;;16.00;99.90;;;;;;5076216;28;20111;-51
2023/10/02 06:03:37;;;;;;;16.42;5.90;;;16.10;99.90;;;;;;5074597;28;20068;-54
2023/10/02 06:06:24;;;;;;;14.07;4.70;;;16.10;99.90;;;;;;5079908;28;20516;-52
2023/10/02 06:09:03;;;;;;;12.63;5.03;;;16.00;99.90;;;;;;5075755;28;20028;-51
2023/10/02 06:11:33;;;;;;;15.98;5.57;;;15.90;99.90;;;;;;5080410;28;20493;-52
2023/10/02 06:14:09;;;;;;;21.58;7.18;;;15.90;99.90;;;;;;5070793;28;20485;-54
2023/10/02 06:16:40;;;;;;;14.80;5.07;;;15.90;99.90;;;;;;5070689;28;20576;-54
2023/10/02 06:19:07;;;;;;;17.30;5.75;;;15.90;99.90;;;;;;5070517;28;20024;-55
2023/10/02 06:24:27;;;;;;;15.20;5.28;;;16.10;99.90;;;;;;5070470;28;20036;-54
2023/10/02 06:27:04;;;;;;;14.60;4.40;;;16.20;99.90;;;;;;5070592;28;20047;-55
2023/10/02 06:29:37;;;;;;;16.50;5.10;;;16.30;99.90;;;;;;5070254;28;20033;-52
2023/10/02 06:32:11;;;;;;;14.85;5.22;;;16.30;99.90;;;;;;5070357;28;20043;-52
2023/10/02 06:34:39;;;;;;;15.23;5.32;;;16.40;99.90;;;;;;5070527;28;20047;-52
2023/10/02 06:37:11;;;;;;;15.00;5.43;;;16.40;99.90;;;;;;5070406;28;20077;-52
2023/10/02 06:39:41;;;;;;;13.90;5.40;;;16.50;99.90;;;;;;5070321;28;20082;-52
2023/10/02 06:42:08;;;;;;;15.13;4.78;;;16.50;99.90;;;;;;5070068;28;20032;-55
2023/10/02 06:44:52;;;;;;;14.77;5.50;;;16.50;99.90;;;;;;5070756;28;20028;-51
2023/10/02 06:47:32;;;;;;;13.88;5.25;;;16.70;99.90;;;;;;5070489;28;20073;-54
2023/10/02 06:50:03;;;;;;;15.70;5.18;;;16.70;99.90;;;;;;5071190;28;20043;-52
2023/10/02 06:52:33;;;;;;;14.32;4.85;;;16.80;99.90;;;;;;5070026;28;20047;-53
2023/10/02 06:55:01;;;;;;;17.83;5.32;;;16.90;99.90;;;;;;5070164;28;20031;-51
2023/10/02 06:57:27;;;;;;;15.75;4.88;;;16.90;99.90;;;;;;5070278;28;20039;-51
2023/10/02 06:59:56;;;;;;;13.43;4.75;;;17.00;99.90;;;;;;5070156;28;20033;-52
2023/10/02 07:02:27;;;;;;;14.68;4.75;;;17.10;99.90;;;;;;5069725;28;20033;-52
2023/10/02 07:04:56;;;;;;;17.58;4.97;;;17.20;99.90;;;;;;5070221;28;20439;-52
2023/10/02 07:07:30;;;;;;;11.48;4.70;;;17.30;99.90;;;;;;5072926;28;20052;-53
2023/10/02 07:10:08;;;;;;;15.35;4.70;;;17.30;99.90;;;;;;5073821;28;20077;-52
2023/10/02 07:12:39;;;;;;;15.52;5.47;;;17.40;99.90;;;;;;5073974;28;20435;-53
2023/10/02 07:15:13;;;;;;;17.20;5.35;;;17.50;99.90;;;;;;5074015;28;20037;-52
2023/10/02 07:17:47;;;;;;;12.82;4.60;;;17.60;99.90;;;;;;5073792;28;20500;-50
2023/10/02 07:20:20;;;;;;;12.90;4.45;;;17.60;99.90;;;;;;5073572;28;20044;-55
2023/10/02 07:22:47;;;;;;;13.63;4.65;;;17.70;99.90;;;;;;5073600;28;20020;-52
2023/10/02 07:25:20;;;;;;;12.75;4.90;;;17.80;99.90;;;;;;5073203;28;20037;-52
2023/10/02 07:27:48;;;;;;;17.52;4.88;;;17.90;99.90;;;;;;5073474;28;20028;-52
2023/10/02 07:30:24;;;;;;;14.02;5.75;;;17.90;99.90;;;;;;5073274;28;20036;-54
2023/10/02 07:32:53;;;;;;;16.50;5.50;;;18.00;99.90;;;;;;5073287;28;20036;-51
2023/10/02 07:35:21;;;;;;;14.52;4.80;;;18.10;99.90;;;;;;5073553;28;20036;-52
2023/10/02 07:37:58;;;;;;;15.38;5.38;;;18.20;99.90;;;;;;5073280;28;20025;-53
2023/10/02 07:40:46;;;;;;;42.75;19.58;;;18.20;99.90;;;;;;5073193;28;20048;-52
2023/10/02 07:43:23;;;;;;;14.95;5.60;;;18.40;99.90;;;;;;5073424;28;20473;-51
2023/10/02 07:46:02;;;;;;;18.52;6.70;;;18.50;99.90;;;;;;5073313;28;20039;-54
2023/10/02 07:48:33;;;;;;;;;;;18.60;99.90;;;;;;5073779;28;20552;-51
2023/10/02 07:51:00;;;;;;;22.73;8.73;;;18.70;99.90;;;;;;5073205;28;20359;-51
2023/10/02 07:53:38;;;;;;;21.48;7.68;;;18.70;99.90;;;;;;5073153;28;20417;-50
2023/10/02 07:56:16;;;;;;;26.13;10.50;;;18.80;99.90;;;;;;5073170;28;20086;-49
2023/10/02 07:58:43;;;;;;;12.23;4.78;;;19.00;99.90;;;;;;5072695;28;20434;-53
2023/10/02 08:01:12;;;;;;;13.95;5.65;;;19.10;99.90;;;;;;5072731;28;20548;-54
2023/10/02 08:03:44;;;;;;;15.68;5.65;;;19.20;99.90;;;;;;5055106;28;20036;-51
2023/10/02 08:06:21;;;;;;;15.77;5.03;;;19.20;99.90;;;;;;5072919;28;20037;-52
2023/10/02 08:08:54;;;;;;;15.93;5.00;;;19.30;99.90;;;;;;5072698;28;20407;-53
2023/10/02 08:11:19;;;;;;;14.88;5.00;;;19.40;99.90;;;;;;5072276;28;20043;-50
2023/10/02 08:13:48;;;;;;;15.98;4.95;;;19.40;99.90;;;;;;5072761;28;20032;-55
2023/10/02 08:16:17;;;;;;;16.30;5.00;;;19.50;99.90;;;;;;5072995;28;20400;-51
2023/10/02 08:18:58;;;;;;;;;;;19.50;99.90;;;;;;5072256;28;20071;-51
2023/10/02 08:21:46;;;;;;;15.18;5.00;;;19.60;99.90;;;;;;5072306;28;20374;-54
2023/10/02 08:24:13;;;;;;;15.15;5.18;;;19.70;99.90;;;;;;5072553;28;20146;-51
2023/10/02 08:26:46;;;;;;;13.85;5.50;;;19.80;99.90;;;;;;5072532;28;20036;-51
2023/10/02 08:29:13;;;;;;;15.30;5.43;;;19.90;99.90;;;;;;5072316;28;20107;-51
2023/10/02 08:31:43;;;;;;;12.90;4.57;;;20.00;99.90;;;;;;5072319;28;20500;-50
2023/10/02 08:34:13;;;;;;;16.08;5.15;;;20.10;99.90;;;;;;5072367;28;20042;-54
2023/10/02 08:36:40;;;;;;;15.07;5.65;;;20.20;99.90;;;;;;5072384;28;20047;-54
2023/10/02 08:39:06;;;;;;;12.95;5.28;;;20.30;99.90;;;;;;5072142;28;20040;-50
2023/10/02 08:41:43;;;;;;;16.08;5.50;;;20.40;99.90;;;;;;5072059;28;20055;-53
2023/10/02 08:44:13;;;;;;;16.83;5.93;;;20.40;99.90;;;;;;5072250;28;20094;-54
2023/10/02 08:46:42;;;;;;;14.57;5.00;;;20.60;99.90;;;;;;5072254;28;20035;-54
2023/10/02 08:49:10;;;;;;;12.52;4.75;;;20.70;99.90;;;;;;5072301;28;20028;-53
2023/10/02 08:51:38;;;;;;;13.68;5.15;;;20.80;99.90;;;;;;5072321;28;20041;-55
2023/10/02 08:54:05;;;;;;;15.77;5.15;;;20.90;99.90;;;;;;5072297;28;20037;-55
2023/10/02 08:56:43;;;;;;;15.43;5.40;;;20.90;99.90;;;;;;5072503;28;20060;-54
2023/10/02 08:59:17;;;;;;;;;;;21.00;99.90;;;;;;5072282;28;20123;-53
2023/10/02 09:01:49;;;;;;;18.83;6.45;;;21.00;99.90;;;;;;5071930;28;19918;-54
2023/10/02 09:06:59;;;;;;;13.23;5.57;;;21.20;99.90;;;;;;5071850;28;20064;-53
2023/10/02 09:12:03;;;;;;;17.10;5.32;;;21.40;99.90;;;;;;5071710;28;20074;-51
2023/10/02 09:17:12;;;;;;;14.90;5.07;;;21.50;99.90;;;;;;5071586;28;20073;-50
2023/10/02 09:19:39;;;;;;;17.85;5.25;;;21.60;99.90;;;;;;5071503;28;20035;-54
2023/10/02 09:22:12;;;;;;;16.80;5.43;;;21.60;99.90;;;;;;5071876;28;20115;-54
2023/10/02 09:24:40;;;;;;;15.55;5.93;;;21.90;99.90;;;;;;5071550;28;20036;-54
2023/10/02 09:27:27;;;;;;;15.73;5.72;;;22.00;99.90;;;;;;5071757;28;20366;-54
2023/10/02 09:30:16;;;;;;;14.00;5.05;;;22.20;99.90;;;;;;5070479;28;20056;-54
2023/10/02 09:32:50;;;;;;;13.40;5.00;;;22.50;99.90;;;;;;5071536;28;20032;-51
2023/10/02 09:35:25;;;;;;;17.45;5.85;;;22.60;99.90;;;;;;5071669;28;20397;-54
2023/10/02 09:37:56;;;;;;;17.02;5.63;;;22.80;99.90;;;;;;5071481;28;20381;-54
2023/10/02 09:40:28;;;;;;;15.05;5.63;;;23.40;99.90;;;;;;5071084;28;20419;-51
2023/10/02 09:43:01;;;;;;;13.57;5.05;;;23.90;99.90;;;;;;5071047;28;20452;-53
2023/10/02 09:45:31;;;;;;;16.02;5.72;;;24.50;99.90;;;;;;5071256;28;20431;-55
2023/10/02 09:48:05;;;;;;;17.25;6.63;;;25.00;99.90;;;;;;5071256;28;20036;-53
2023/10/02 09:50:37;;;;;;;14.50;5.55;;;25.50;99.90;;;;;;5071196;28;20043;-54
2023/10/02 09:53:10;;;;;;;15.07;5.40;;;25.80;99.90;;;;;;5071235;28;20033;-55
2023/10/02 09:55:50;;;;;;;16.83;6.20;;;26.00;99.90;;;;;;5071005;28;20032;-53
2023/10/02 09:58:26;;;;;;;14.05;5.35;;;26.30;99.90;;;;;;5070965;28;20032;-54
2023/10/02 10:03:52;;;;;;;17.63;6.60;;;26.70;99.90;;;;;;5070971;28;20052;-51
2023/10/02 10:06:24;;;;;;;17.63;6.13;;;27.00;99.20;;;;;;5070965;28;20051;-51
2023/10/02 10:11:43;;;;;;;16.35;6.65;;;27.10;99.50;;;;;;5070777;28;20481;-54
2023/10/02 10:14:42;;;;;;;17.67;6.03;;;27.50;99.10;;;;;;5071427;28;20396;-52
2023/10/02 10:17:15;;;;;;;16.30;5.65;;;27.60;97.70;;;;;;5064741;28;20049;-53
2023/10/02 10:20:18;;;;;;;15.48;6.15;;;27.70;98.10;;;;;;5070476;28;20040;-53
2023/10/02 10:22:54;;;;;;;17.38;7.05;;;28.10;97.30;;;;;;5067128;28;20461;-55
2023/10/02 10:28:06;;;;;;;16.55;6.65;;;28.30;96.50;;;;;;5070406;28;20029;-53
2023/10/02 10:30:39;;;;;;;15.65;5.93;;;28.20;96.40;;;;;;5070311;28;20035;-51
2023/10/02 10:35:49;;;;;;;;;;;27.30;97.10;;;;;;5070996;28;20068;-50
2023/10/02 10:38:21;;;;;;;14.57;6.00;;;27.10;97.30;;;;;;5070409;28;19915;-51
2023/10/02 10:40:50;;;;;;;12.68;5.38;;;26.90;98.30;;;;;;5070144;28;20424;-51
2023/10/02 10:43:21;;;;;;;15.63;6.00;;;26.80;98.50;;;;;;5074362;28;20028;-50
2023/10/02 10:45:51;;;;;;;17.92;6.72;;;26.60;98.30;;;;;;5074798;28;20025;-53
2023/10/02 10:48:23;;;;;;;17.02;6.20;;;26.20;98.70;;;;;;5074278;28;20427;-51
2023/10/02 10:51:06;;;;;;;18.02;7.13;;;25.90;98.90;;;;;;5074318;28;20036;-51
2023/10/02 10:53:33;;;;;;;20.83;7.15;;;25.80;99.20;;;;;;5074459;28;20119;-50
2023/10/02 10:56:17;;;;;;;17.52;7.03;;;25.80;99.90;;;;;;5074209;28;20541;-53
2023/10/02 10:58:44;;;;;;;16.45;6.40;;;25.70;99.40;;;;;;5074017;28;20024;-50
2023/10/02 11:01:13;;;;;;;16.63;6.15;;;25.50;99.90;;;;;;5074025;28;20036;-51
2023/10/02 11:03:43;;;;;;;17.60;5.88;;;25.40;99.90;;;;;;5074197;28;20028;-50
2023/10/02 11:06:10;;;;;;;15.63;5.80;;;25.30;99.90;;;;;;5074592;28;20033;-53
2023/10/02 11:08:40;;;;;;;16.73;6.00;;;25.30;99.90;;;;;;5073706;28;20071;-51
2023/10/02 11:11:25;;;;;;;15.10;5.95;;;25.20;99.90;;;;;;5074128;28;20029;-51
2023/10/02 11:13:58;;;;;;;17.15;7.07;;;25.30;99.90;;;;;;5073972;28;20465;-52
2023/10/02 11:16:30;;;;;;;19.08;8.18;;;25.10;99.90;;;;;;5074089;28;20119;-53
2023/10/02 11:19:21;;;;;;;20.10;6.80;;;25.10;99.90;;;;;;5073625;28;20052;-53
2023/10/02 11:22:15;;;;;;;19.05;6.90;;;25.10;99.90;;;;;;5073561;28;20515;-53
2023/10/02 11:24:45;;;;;;;16.83;6.50;;;25.20;99.90;;;;;;5073599;28;20028;-51
2023/10/02 11:27:17;;;;;;;17.23;6.50;;;25.20;99.90;;;;;;5073736;28;20442;-50
2023/10/02 11:29:45;;;;;;;19.42;6.80;;;25.20;99.90;;;;;;5073467;28;20441;-52
2023/10/02 11:32:23;;;;;;;16.52;6.57;;;25.30;99.90;;;;;;5073554;28;20515;-51
2023/10/02 11:34:58;;;;;;;16.38;6.47;;;25.30;99.90;;;;;;5073642;28;20044;-51
2023/10/02 11:37:26;;;;;;;15.65;6.32;;;25.30;99.90;;;;;;5073377;28;20036;-54
2023/10/02 11:39:54;;;;;;;15.70;6.23;;;25.40;99.90;;;;;;5073165;28;20054;-53
2023/10/02 11:42:20;;;;;;;18.85;7.47;;;25.30;99.90;;;;;;5073140;28;20037;-51
2023/10/02 11:44:46;;;;;;;18.05;7.28;;;25.20;99.90;;;;;;5073523;28;20103;-50
2023/10/02 11:47:12;;;;;;;16.25;5.85;;;25.20;99.90;;;;;;5073303;28;20105;-51
2023/10/02 11:49:39;;;;;;;14.98;6.28;;;25.20;99.90;;;;;;5073068;28;20059;-52
2023/10/02 11:52:06;;;;;;;17.30;7.07;;;25.20;99.90;;;;;;5072878;28;20044;-52
2023/10/02 11:54:39;;;;;;;21.77;7.10;;;25.30;99.90;;;;;;5072428;28;20112;-54
2023/10/02 11:57:12;;;;;;;17.63;6.78;;;25.50;99.90;;;;;;5073435;28;20141;-54
2023/10/02 11:59:42;;;;;;;16.95;6.15;;;25.90;99.90;;;;;;5073139;28;20028;-53
2023/10/02 12:02:12;;;;;;;18.27;6.32;;;26.20;99.90;;;;;;5072907;28;20044;-51
2023/10/02 12:04:38;;;;;;;16.15;6.68;;;26.60;99.90;;;;;;5073417;28;20395;-53
2023/10/02 12:07:05;;;;;;;16.25;5.78;;;26.80;99.90;;;;;;5073977;28;20040;-52
2023/10/02 12:09:33;;;;;;;15.90;5.78;;;26.80;99.90;;;;;;5072891;28;20024;-52
2023/10/02 12:11:59;;;;;;;15.75;6.40;;;26.80;99.10;;;;;;5073350;28;20032;-51
2023/10/02 12:14:28;;;;;;;15.50;6.05;;;26.70;99.90;;;;;;5072997;28;20036;-54
2023/10/02 12:16:57;;;;;;;18.20;6.63;;;26.50;99.10;;;;;;5072876;28;20037;-51
2023/10/02 12:19:26;;;;;;;;;;;26.20;99.50;;;;;;5073179;28;20036;-53
2023/10/02 12:21:52;;;;;;;15.88;5.60;;;26.10;99.90;;;;;;5054738;28;19913;-52
2023/10/02 12:24:20;;;;;;;14.52;5.75;;;26.00;99.90;;;;;;5072766;28;20044;-53
2023/10/02 12:26:46;;;;;;;18.25;7.35;;;26.10;99.90;;;;;;5073064;28;20483;-51
2023/10/02 12:29:12;;;;;;;16.35;6.30;;;26.20;99.90;;;;;;5072570;28;20890;-54
2023/10/02 12:31:38;;;;;;;15.05;6.30;;;26.20;99.90;;;;;;5072720;28;20236;-52
2023/10/02 12:34:05;;;;;;;15.00;6.47;;;26.20;99.90;;;;;;5072702;28;20071;-52
2023/10/02 12:36:31;;;;;;;17.15;6.88;;;26.30;99.90;;;;;;5072425;28;20036;-50
2023/10/02 12:39:00;;;;;;;16.38;5.93;;;26.20;99.90;;;;;;5072230;28;20033;-51
2023/10/02 12:41:30;;;;;;;18.85;7.45;;;26.30;99.90;;;;;;5072584;28;20031;-53
2023/10/02 12:43:56;;;;;;;19.33;7.75;;;26.30;99.90;;;;;;5072305;28;20039;-50
2023/10/02 12:46:31;;;;;;;18.23;6.43;;;26.40;99.90;;;;;;5072384;28;20036;-51
2023/10/02 12:48:58;;;;;;;17.77;6.35;;;26.50;99.90;;;;;;5071915;28;20028;-51
2023/10/02 12:51:28;;;;;;;17.25;6.75;;;26.30;99.90;;;;;;5071949;28;20032;-54
2023/10/02 12:53:54;;;;;;;17.70;6.50;;;26.10;99.90;;;;;;5072344;28;20028;-54
2023/10/02 12:56:22;;;;;;;15.82;6.15;;;26.00;99.90;;;;;;5072067;28;20016;-54
2023/10/02 12:58:51;;;;;;;14.70;6.00;;;25.90;99.90;;;;;;5071861;28;20553;-51
2023/10/02 13:01:27;;;;;;;16.40;6.22;;;25.80;99.90;;;;;;5072006;28;20512;-53
2023/10/02 13:03:56;;;;;;;14.75;5.55;;;25.70;99.90;;;;;;5071823;28;20025;-54
2023/10/02 13:06:26;;;;;;;15.30;6.00;;;25.60;99.90;;;;;;5071974;28;20551;-52
2023/10/02 13:08:55;;;;;;;16.90;6.10;;;25.50;99.90;;;;;;5071444;28;20029;-54
2023/10/02 13:11:21;;;;;;;15.85;6.22;;;25.60;99.90;;;;;;5071624;28;20059;-50
2023/10/02 13:13:49;;;;;;;14.77;6.20;;;25.60;99.90;;;;;;5071844;28;20067;-52
2023/10/02 13:16:16;;;;;;;17.45;7.68;;;25.70;99.90;;;;;;5071952;28;20113;-51
2023/10/02 13:18:43;;;;;;;15.60;5.93;;;25.90;99.90;;;;;;5053650;28;20041;-51
2023/10/02 13:21:19;;;;;;;14.73;5.50;;;26.10;99.90;;;;;;5071266;28;20036;-50
2023/10/02 13:23:46;;;;;;;15.35;6.65;;;26.10;99.90;;;;;;5071300;28;20043;-51
2023/10/02 13:26:16;;;;;;;14.55;5.43;;;26.10;99.90;;;;;;5071453;28;20540;-52
2023/10/02 13:28:48;;;;;;;15.48;6.25;;;26.00;99.90;;;;;;5071176;28;20455;-51
2023/10/02 13:31:16;;;;;;;18.77;5.60;;;25.90;99.90;;;;;;5071237;28;20032;-53
2023/10/02 13:33:51;;;;;;;;;;;25.90;99.90;;;;;;5071871;28;20020;-50
2023/10/02 13:36:27;;;;;;;14.27;5.55;;;25.80;99.90;;;;;;5053456;28;19934;-51
2023/10/02 13:38:56;;;;;;;17.00;6.43;;;25.90;99.90;;;;;;5071089;28;20039;-53
2023/10/02 13:41:23;;;;;;;14.40;6.00;;;25.80;99.90;;;;;;5070967;28;20123;-55